• Join FlightAware (Why Join?)
  • Login
  • US Flag 
04:33AM EDT


 

Airport Tracker/Info


-or-


 

Live Flight TrackerFlight Track Log ✈ SAS837 ✈ 09-May-2012 ✈ ENGM / OSL - LFPG / CDG

Flight Track Log - Related Links

Times and Time Zones

All times are in EDT time to prevent confusion due to time zone crossing. See the SAS837 flight status page for this flight to view local times or setup timezone preferences in your user account.

Time Position Orientation Groundspeed Altitude Reporting Facility
EDT Latitude Longitude Course Direction KTS MPH feet Rate Location/Type
05:03AM 60.0507 10.9513 207° Southwest  Level Estimated
05:04AM 59.9572 10.8548 207° Southwest  Level Estimated
05:05AM 59.8637 10.7589 207° Southwest  Level Estimated
05:06AM 59.7701 10.6635 207° Southwest  Level Estimated
05:07AM 59.6764 10.5686 207° Southwest  Level Estimated
05:08AM 59.5826 10.4743 207° Southwest  Level Estimated
05:09AM 59.4888 10.3804 207° Southwest  Level Estimated
05:10AM 59.3949 10.2871 207° Southwest  Level Estimated
05:11AM 59.3010 10.1944 207° Southwest  Level Estimated
05:12AM 59.2070 10.1021 207° Southwest  Level Estimated
05:13AM 59.1120 10.0095 207° Southwest  Level Estimated
05:14AM 59.0171 9.9174 206° Southwest  Level Estimated
05:15AM 58.9220 9.8259 206° Southwest  Level Estimated
05:16AM 58.8269 9.7348 206° Southwest  Level Estimated
05:17AM 58.7318 9.6443 206° Southwest  Level Estimated
05:18AM 58.6366 9.5542 206° Southwest  Level Estimated
05:19AM 58.5413 9.4647 206° Southwest  Level Estimated
05:20AM 58.4459 9.3756 206° Southwest  Level Estimated
05:21AM 58.3505 9.2870 206° Southwest  Level Estimated
05:22AM 58.2550 9.1989 206° Southwest  Level Estimated
05:23AM 58.1595 9.1112 206° Southwest  Level Estimated
05:24AM 58.0639 9.0241 206° Southwest  Level Estimated
05:25AM 57.9683 8.9374 206° Southwest  Level Estimated
05:26AM 57.8726 8.8511 206° Southwest  Level Estimated
05:27AM 57.7768 8.7653 205° Southwest  Level Estimated
05:28AM 57.6810 8.6800 205° Southwest  Level Estimated
05:29AM 57.5851 8.5951 205° Southwest  Level Estimated
05:30AM 57.4891 8.5106 205° Southwest  Level Estimated
05:31AM 57.3931 8.4267 205° Southwest  Level Estimated
05:32AM 57.2971 8.3431 205° Southwest  Level Estimated
05:33AM 57.2010 8.2600 205° Southwest  Level Estimated
05:34AM 57.1048 8.1773 205° Southwest  Level Estimated
05:35AM 57.0086 8.0950 205° Southwest  Level Estimated
05:36AM 56.9123 8.0132 205° Southwest  Level Estimated
05:37AM 56.8160 7.9318 205° Southwest  Level Estimated
05:38AM 56.7196 7.8508 205° Southwest  Level Estimated
05:39AM 56.6232 7.7702 205° Southwest  Level Estimated
05:40AM 56.5267 7.6900 205° Southwest  Level Estimated
05:41AM 56.4302 7.6102 204° Southwest  Level Estimated
05:42AM 56.3336 7.5309 204° Southwest  Level Estimated
05:43AM 56.2370 7.4519 204° Southwest  Level Estimated
05:44AM 56.1403 7.3734 204° Southwest  Level Estimated
05:45AM 56.0436 7.2952 204° Southwest  Level Estimated
05:46AM 55.9468 7.2174 204° Southwest  Level Estimated
05:47AM 55.8500 7.1400 204° Southwest  Level Estimated
05:48AM 55.7531 7.0630 204° Southwest  Level Estimated
05:49AM 55.6562 6.9864 204° Southwest  Level Estimated
05:50AM 55.5592 6.9101 204° Southwest  Level Estimated
05:51AM 55.4622 6.8343 204° Southwest  Level Estimated
05:52AM 55.3651 6.7588 204° Southwest  Level Estimated
05:53AM 55.2680 6.6836 204° Southwest  Level Estimated
05:54AM 55.1708 6.6089 204° Southwest  Level Estimated
05:55AM 55.0736 6.5345 204° Southwest  Level Estimated
05:56AM 54.9764 6.4604 204° Southwest  Level Estimated
05:57AM 54.8791 6.3868 203° Southwest  Level Estimated
05:58AM 54.7817 6.3134 203° Southwest  Level Estimated
05:59AM 54.6843 6.2405 203° Southwest  Level Estimated
06:00AM 54.5869 6.1679 203° Southwest  Level Estimated
06:01AM 54.4894 6.0956 203° Southwest  Level Estimated
06:02AM 54.3919 6.0236 203° Southwest  Level Estimated
06:03AM 54.2944 5.9521 203° Southwest  Level Estimated
06:04AM 54.1968 5.8808 203° Southwest  Level Estimated
06:05AM 54.0992 5.8099 203° Southwest  Level Estimated
06:06AM 54.0015 5.7393 203° Southwest  Level Estimated
06:07AM 53.9038 5.6691 203° Southwest  Level Estimated
06:08AM 53.8060 5.5991 203° Southwest  Level Estimated
06:09AM 53.7082 5.5295 203° Southwest  Level Estimated
06:10AM 53.6104 5.4602 203° Southwest  Level Estimated
06:11AM 53.5125 5.3913 203° Southwest  Level Estimated
06:12AM 53.4146 5.3226 203° Southwest  Level Estimated
06:13AM 53.3166 5.2543 203° Southwest  Level Estimated
06:14AM 53.2186 5.1863 203° Southwest  Level Estimated
06:15AM 53.1205 5.1186 202° Southwest  Level Estimated
06:16AM 53.0225 5.0512 202° Southwest  Level Estimated
06:17AM 52.9244 4.9841 202° Southwest  Level Estimated
06:18AM 52.8262 4.9173 202° Southwest  Level Estimated
06:19AM 52.7280 4.8509 202° Southwest  Level Estimated
06:20AM 52.6298 4.7847 202° Southwest  Level Estimated
06:21AM 52.5315 4.7188 202° Southwest  Level Estimated
06:22AM 52.4332 4.6532 202° Southwest  Level Estimated
06:23AM 52.3349 4.5879 202° Southwest  Level Estimated
06:24AM 52.2365 4.5229 202° Southwest  Level Estimated
06:25AM 52.1381 4.4582 202° Southwest  Level Estimated
06:26AM 52.0397 4.3937 202° Southwest  Level Estimated
06:27AM 51.9412 4.3296 202° Southwest  Level Estimated
06:28AM 51.8427 4.2657 202° Southwest  Level Estimated
06:29AM 51.7441 4.2021 202° Southwest  Level Estimated
06:30AM 51.6455 4.1388 202° Southwest  Level Estimated
06:31AM 51.5469 4.0758 202° Southwest  Level Estimated
06:32AM 51.4483 4.0130 202° Southwest  Level Estimated
06:33AM 51.3496 3.9505 202° Southwest  Level Estimated
06:34AM 51.2509 3.8883 201° Southwest  Level Estimated
06:35AM 51.1521 3.8263 201° Southwest  Level Estimated
06:36AM 51.0533 3.7646 201° Southwest  Level Estimated
06:37AM 50.9545 3.7032 201° Southwest  Level Estimated
06:38AM 50.8557 3.6420 201° Southwest  Level Estimated
06:39AM 50.7568 3.5811 201° Southwest  Level Estimated
06:40AM 50.6579 3.5204 201° Southwest  Level Estimated
06:41AM 50.5589 3.4600 201° Southwest  Level Estimated
06:42AM 50.4600 3.3999 201° Southwest  Level Estimated
06:43AM 50.3610 3.3400 201° Southwest  Level Estimated
06:44AM 50.2620 3.2803 201° Southwest  Level Estimated
06:45AM 50.1629 3.2209 201° Southwest  Level Estimated
06:46AM 50.0638 3.1618 201° Southwest  Level Estimated
06:47AM 49.9647 3.1028 201° Southwest  Level Estimated
06:48AM 49.8655 3.0442 201° Southwest  Level Estimated
06:49AM 49.7663 2.9857 201° Southwest  Level Estimated
06:50AM 49.6671 2.9276 201° Southwest  Level Estimated
06:51AM 49.5679 2.8696 201° Southwest  Level Estimated
06:52AM 49.4686 2.8119 201° Southwest  Level Estimated
06:53AM 49.3693 2.7544 201° Southwest  Level Estimated
06:54AM 49.2700 2.6971 201° Southwest  Level Estimated
06:55AM 49.1707 2.6401 201° Southwest  Level Estimated
06:56AM 49.0713 2.5833 200° South  Level Estimated
06:57AM 48.9719 2.5268 20° North  Level Estimated
06:58AM 49.0713 2.5833 200° South  Level Estimated
06:59AM 48.9719 2.5268 20° North  Level Estimated
07:00AM 49.0713 2.5833 200° South  Level Estimated
07:01AM 48.9719 2.5268 20° North  Level Estimated
07:02AM 49.0713 2.5833 200° South  Level Estimated
07:03AM 48.9719 2.5268 20° North  Level Estimated
07:04AM 49.0713 2.5833 200° South  Level Estimated
07:05AM 48.9719 2.5268 20° North  Level Estimated
07:06AM 49.0713 2.5833 200° South  Level Estimated
07:07AM 48.9719 2.5268 20° North  Level Estimated
07:08AM 49.0713 2.5833 200° South  Level Estimated
07:09AM 48.9719 2.5268 20° North  Level Estimated
07:10AM 49.0713 2.5833 200° South  Level Estimated
07:11AM 48.9719 2.5268 20° North  Level Estimated
07:12AM 49.0713 2.5833 20° North  Level Estimated